Adagio — WDF9618 — position and weather

sailwx.info

Track history (hours):
 
Tides and Currents Weather Stations Pressure Air Temp Water Temp Dewpoint Dewpoint Depression Visibility Wind Speed Wind Dir Waves Ship Positions

Adagio

Owner: Whalen, Raymond J, Rockville, MD. More information available from US FCC via Universal Licensing System and Coast Guard Vessel Documentation Center.

Last reported at 2017-Sep-17 09:14 UTC. Time now 2017-Sep-21 04:56 UTC.
Position N 38°54' W 076°32'.

Length 14 m.

Type: Sailing vessel. MMSI: 366777490.

Date/timePositionNaut miles runAvg speedWind from/ knotsBaromVisibWave heightAir tempDewpointWater temp
2017-Sep-17 09:14N 38°54' W 076°32'0 0.0
2017-Sep-17 08:47N 38°54' W 076°32'0 0.0
2017-Sep-17 08:23N 38°54' W 076°32'0 0.0
2017-Sep-17 07:59N 38°54' W 076°32'0 0.0
2017-Sep-17 07:26N 38°54' W 076°32'0 0.0
2017-Sep-17 06:59N 38°54' W 076°32'0 0.0
2017-Sep-17 06:29N 38°54' W 076°32'0 0.0
2017-Sep-17 05:59N 38°54' W 076°32'0 0.0
2017-Sep-17 05:26N 38°54' W 076°32'0 0.0
2017-Sep-17 04:59N 38°54' W 076°32'0 0.0
2017-Sep-17 04:26N 38°54' W 076°32'0 0.0
2017-Sep-17 03:59N 38°54' W 076°32'0 0.0
2017-Sep-17 03:29N 38°54' W 076°32'0 0.0
2017-Sep-17 02:59N 38°54' W 076°32'0 0.0
2017-Sep-17 02:23N 38°54' W 076°32'0 0.0
2017-Sep-17 01:59N 38°54' W 076°32'0 0.0
2017-Sep-17 01:28N 38°54' W 076°32'0 0.0
2017-Sep-17 00:59N 38°54' W 076°32'0 0.0
2017-Sep-17 00:29N 38°54' W 076°32'0 0.0
2017-Sep-16 23:58N 38°54' W 076°32'0 0.0
2017-Sep-16 23:29N 38°54' W 076°32'0 0.0
2017-Sep-16 22:59N 38°54' W 076°32'0 0.0
2017-Sep-16 22:28N 38°54' W 076°32'0 0.0
2017-Sep-16 19:43N 38°54' W 076°32'1 3.3
2017-Sep-16 19:30N 38°53' W 076°31'3 5.3
2017-Sep-16 19:00N 38°50' W 076°32'0 0.1
2017-Sep-16 18:30N 38°50' W 076°32'0 0.0
2017-Sep-16 18:00N 38°50' W 076°32'0 0.0
2017-Sep-16 17:30N 38°50' W 076°32'0 0.2
2017-Sep-16 17:00N 38°51' W 076°32'7 0.1
2017-Sep-14 17:33N 38°55' W 076°25'1 6.9
2017-Sep-14 17:22N 38°56' W 076°26'3 0.2
2017-Sep-14 06:22N 38°57' W 076°29'0 0.0
2017-Sep-14 05:52N 38°57' W 076°29'0 0.0
2017-Sep-14 05:28N 38°57' W 076°29'0 0.0
2017-Sep-14 04:58N 38°57' W 076°29'0 0.0
2017-Sep-13 03:29N 38°57' W 076°29'0 0.0
2017-Sep-13 02:11N 38°57' W 076°29'  
Track history (hours):
 
Tides and Currents Weather Stations Pressure Air Temp Water Temp Dewpoint Dewpoint Depression Visibility Wind Speed Wind Dir Waves Ship Positions

Adagio

Owner: Whalen, Raymond J, Rockville, MD. More information available from US FCC via Universal Licensing System and Coast Guard Vessel Documentation Center.

Last reported at 2017-Sep-17 09:14 UTC. Time now 2017-Sep-21 04:56 UTC.
Position N 38°54' W 076°32'.

Length 14 m.

Type: Sailing vessel. MMSI: 366777490.

Date/timePositionNaut miles runAvg speedWind from/ knotsBaromVisibWave heightAir tempDewpointWater temp
2017-Sep-17 09:14N 38°54' W 076°32'0 0.0
2017-Sep-17 08:47N 38°54' W 076°32'0 0.0
2017-Sep-17 08:23N 38°54' W 076°32'0 0.0
2017-Sep-17 07:59N 38°54' W 076°32'0 0.0
2017-Sep-17 07:26N 38°54' W 076°32'0 0.0
2017-Sep-17 06:59N 38°54' W 076°32'0 0.0
2017-Sep-17 06:29N 38°54' W 076°32'0 0.0
2017-Sep-17 05:59N 38°54' W 076°32'0 0.0
2017-Sep-17 05:26N 38°54' W 076°32'0 0.0
2017-Sep-17 04:59N 38°54' W 076°32'0 0.0
2017-Sep-17 04:26N 38°54' W 076°32'0 0.0
2017-Sep-17 03:59N 38°54' W 076°32'0 0.0
2017-Sep-17 03:29N 38°54' W 076°32'0 0.0
2017-Sep-17 02:59N 38°54' W 076°32'0 0.0
2017-Sep-17 02:23N 38°54' W 076°32'0 0.0
2017-Sep-17 01:59N 38°54' W 076°32'0 0.0
2017-Sep-17 01:28N 38°54' W 076°32'0 0.0
2017-Sep-17 00:59N 38°54' W 076°32'0 0.0
2017-Sep-17 00:29N 38°54' W 076°32'0 0.0
2017-Sep-16 23:58N 38°54' W 076°32'0 0.0
2017-Sep-16 23:29N 38°54' W 076°32'0 0.0
2017-Sep-16 22:59N 38°54' W 076°32'0 0.0
2017-Sep-16 22:28N 38°54' W 076°32'0 0.0
2017-Sep-16 19:43N 38°54' W 076°32'1 3.3
2017-Sep-16 19:30N 38°53' W 076°31'3 5.3
2017-Sep-16 19:00N 38°50' W 076°32'0 0.1
2017-Sep-16 18:30N 38°50' W 076°32'0 0.0
2017-Sep-16 18:00N 38°50' W 076°32'0 0.0
2017-Sep-16 17:30N 38°50' W 076°32'0 0.2
2017-Sep-16 17:00N 38°51' W 076°32'7 0.1
2017-Sep-14 17:33N 38°55' W 076°25'1 6.9
2017-Sep-14 17:22N 38°56' W 076°26'3 0.2
2017-Sep-14 06:22N 38°57' W 076°29'0 0.0
2017-Sep-14 05:52N 38°57' W 076°29'0 0.0
2017-Sep-14 05:28N 38°57' W 076°29'0 0.0
2017-Sep-14 04:58N 38°57' W 076°29'0 0.0
2017-Sep-13 03:29N 38°57' W 076°29'0 0.0
2017-Sep-13 02:11N 38°57' W 076°29'  

Dump ship's entire track history